Time;durP1;ratioP1;P1;durP2;ratioP2;P2;SDS_P1;SDS_P2;PMS_P1;PMS_P2;Temp;Humidity;BMP_temperature;BMP_pressure;BME280_temperature;BME280_humidity;BME280_pressure;Samples;Min_cycle;Max_cycle;Signal;HPM_P1;HPM_P2
2023/05/27 00:00:07;;;;;;;13.88;3.00;;;;;;;;;;5076635;28;20044;-82
2023/05/27 00:02:33;;;;;;;20.17;3.65;;;;;;;;;;5064517;28;20059;-82
2023/05/27 00:05:00;;;;;;;19.75;4.10;;;;;;;;;;5067326;28;20044;-82
2023/05/27 00:07:26;;;;;;;17.55;3.58;;;;;;;;;;5064715;28;20040;-82
2023/05/27 00:09:52;;;;;;;22.05;3.78;;;;;;;;;;5045144;28;20051;-81
2023/05/27 00:12:18;;;;;;;19.73;3.70;;;;;;;;;;5061974;28;20036;-82
2023/05/27 00:14:45;;;;;;;23.52;4.25;;;;;;;;;;5063873;28;20035;-82
2023/05/27 00:17:14;;;;;;;16.15;3.88;;;;;;;;;;5070167;28;20494;-81
2023/05/27 00:19:40;;;;;;;21.58;4.20;;;;;;;;;;5068866;28;20067;-82
2023/05/27 00:22:06;;;;;;;15.55;3.50;;;;;;;;;;5069920;28;20700;-82
2023/05/27 00:24:38;;;;;;;23.65;5.15;;;;;;;;;;5065998;28;20043;-83
2023/05/27 00:27:05;;;;;;;19.95;4.10;;;;;;;;;;5058025;28;20044;-81
2023/05/27 00:29:31;;;;;;;24.83;3.92;;;;;;;;;;5058650;28;20044;-82
2023/05/27 00:31:57;;;;;;;23.05;4.97;;;;;;;;;;5058233;28;20043;-82
2023/05/27 00:34:23;;;;;;;19.83;4.15;;;;;;;;;;5066463;28;20050;-81
2023/05/27 00:36:49;;;;;;;13.20;3.50;;;;;;;;;;5063888;28;20043;-82
2023/05/27 00:39:16;;;;;;;21.70;3.53;;;;;;;;;;5067564;28;20068;-82
2023/05/27 00:41:44;;;;;;;14.07;2.80;;;;;;;;;;5070741;28;20105;-82
2023/05/27 00:44:10;;;;;;;14.48;3.03;;;;;;;;;;5068346;28;20385;-82
2023/05/27 00:46:36;;;;;;;21.88;4.43;;;;;;;;;;5072288;28;20170;-82
2023/05/27 00:49:02;;;;;;;18.15;3.22;;;;;;;;;;5073483;28;21902;-82
2023/05/27 00:51:28;;;;;;;14.73;3.33;;;;;;;;;;5084945;28;20044;-82
2023/05/27 00:53:55;;;;;;;16.60;3.67;;;;;;;;;;5067517;28;20488;-82
2023/05/27 00:56:22;;;;;;;30.77;4.50;;;;;;;;;;5066519;28;20167;-82
2023/05/27 00:58:49;;;;;;;20.70;4.05;;;;;;;;;;5070774;28;20036;-82
2023/05/27 01:01:15;;;;;;;18.30;4.28;;;;;;;;;;5067705;28;20707;-82
2023/05/27 01:03:41;;;;;;;19.35;3.97;;;;;;;;;;5065797;28;20160;-81
2023/05/27 01:06:07;;;;;;;22.25;4.10;;;;;;;;;;5066712;28;20052;-81
2023/05/27 01:08:57;;;;;;;18.80;4.28;;;;;;;;;;5066478;28;20042;-83
2023/05/27 01:11:26;;;;;;;17.45;4.47;;;;;;;;;;5036556;28;20036;-82
2023/05/27 01:13:55;;;;;;;21.70;3.55;;;;;;;;;;5064172;28;20109;-81
2023/05/27 01:16:21;;;;;;;21.33;4.43;;;;;;;;;;5077652;28;20158;-82
2023/05/27 01:18:49;;;;;;;24.77;4.10;;;;;;;;;;5066908;28;21893;-82
2023/05/27 01:21:19;;;;;;;24.27;4.28;;;;;;;;;;5064073;28;22681;-82
2023/05/27 01:23:49;;;;;;;17.35;3.90;;;;;;;;;;5063960;28;20142;-82
2023/05/27 01:26:15;;;;;;;17.55;3.97;;;;;;;;;;5066032;28;20047;-83
2023/05/27 01:28:42;;;;;;;17.23;3.25;;;;;;;;;;5058085;28;20047;-82
2023/05/27 01:31:17;;;;;;;11.75;3.40;;;;;;;;;;5062381;28;20039;-82
2023/05/27 01:33:45;;;;;;;16.98;3.97;;;;;;;;;;5067392;28;20040;-81
2023/05/27 01:36:17;;;;;;;13.77;3.83;;;;;;;;;;5066918;28;20090;-82
2023/05/27 01:38:45;;;;;;;19.77;5.32;;;;;;;;;;5064918;28;20056;-82
2023/05/27 01:41:12;;;;;;;15.98;4.40;;;;;;;;;;5065471;28;20055;-82
2023/05/27 01:43:39;;;;;;;19.80;4.10;;;;;;;;;;5067370;28;21448;-81
2023/05/27 01:46:05;;;;;;;20.45;4.25;;;;;;;;;;5066358;28;20075;-82
2023/05/27 01:48:31;;;;;;;11.18;3.20;;;;;;;;;;5042447;28;20044;-82
2023/05/27 01:50:57;;;;;;;16.13;3.95;;;;;;;;;;5082432;27;20263;-82
2023/05/27 01:53:24;;;;;;;18.52;4.38;;;;;;;;;;5078029;27;20056;-82
2023/05/27 01:55:50;;;;;;;21.55;4.20;;;;;;;;;;5047820;28;20056;-82
2023/05/27 01:58:16;;;;;;;18.77;4.63;;;;;;;;;;5066744;28;20039;-81
2023/05/27 02:00:42;;;;;;;14.95;3.50;;;;;;;;;;5069388;28;20040;-82
2023/05/27 02:03:08;;;;;;;16.85;4.30;;;;;;;;;;5063465;28;20055;-82
2023/05/27 02:05:35;;;;;;;13.60;3.42;;;;;;;;;;5064152;28;20048;-82
2023/05/27 02:08:02;;;;;;;22.75;3.88;;;;;;;;;;5065066;28;20185;-82
2023/05/27 02:10:29;;;;;;;16.40;3.85;;;;;;;;;;5064117;28;20044;-82
2023/05/27 02:12:55;;;;;;;24.08;3.65;;;;;;;;;;5064426;28;20043;-83
2023/05/27 02:15:24;;;;;;;22.00;4.45;;;;;;;;;;5069215;28;22051;-83
2023/05/27 02:17:54;;;;;;;18.48;3.88;;;;;;;;;;5065750;28;20051;-83
2023/05/27 02:20:21;;;;;;;19.05;3.72;;;;;;;;;;5066500;28;20046;-82
2023/05/27 02:22:47;;;;;;;16.75;4.20;;;;;;;;;;5069865;28;20100;-83
2023/05/27 02:25:13;;;;;;;20.48;4.75;;;;;;;;;;5064982;28;20967;-83
2023/05/27 02:27:41;;;;;;;17.02;4.20;;;;;;;;;;5067866;28;20218;-82
2023/05/27 02:30:08;;;;;;;18.45;4.00;;;;;;;;;;5066955;28;20491;-83
2023/05/27 02:32:34;;;;;;;20.10;3.75;;;;;;;;;;5070800;28;20065;-83
2023/05/27 02:35:00;;;;;;;23.92;4.25;;;;;;;;;;5064931;28;20087;-82
2023/05/27 02:37:27;;;;;;;16.60;4.53;;;;;;;;;;5070173;28;20063;-82
2023/05/27 02:39:54;;;;;;;20.92;3.95;;;;;;;;;;5065199;28;20043;-82
2023/05/27 02:42:20;;;;;;;20.58;3.75;;;;;;;;;;5072529;28;20035;-81
2023/05/27 02:44:46;;;;;;;17.88;3.55;;;;;;;;;;5087372;28;20476;-82
2023/05/27 02:47:12;;;;;;;23.00;4.22;;;;;;;;;;5086549;28;20048;-82
2023/05/27 02:49:38;;;;;;;17.25;4.38;;;;;;;;;;5089274;28;20146;-81
2023/05/27 02:52:05;;;;;;;19.60;5.38;;;;;;;;;;5085255;28;20070;-83
2023/05/27 02:54:31;;;;;;;15.75;3.60;;;;;;;;;;5084331;28;22775;-83
2023/05/27 02:56:57;;;;;;;20.50;3.70;;;;;;;;;;5068458;28;20054;-82
2023/05/27 02:59:23;;;;;;;24.20;4.15;;;;;;;;;;5065993;28;20165;-83
2023/05/27 03:01:49;;;;;;;19.80;4.22;;;;;;;;;;5067776;28;20044;-83
2023/05/27 03:04:16;;;;;;;14.85;4.28;;;;;;;;;;5069328;28;20058;-83
2023/05/27 03:06:42;;;;;;;17.88;3.58;;;;;;;;;;5065270;28;20482;-82
2023/05/27 03:09:08;;;;;;;16.77;3.53;;;;;;;;;;5065658;28;20044;-82
2023/05/27 03:11:34;;;;;;;22.25;4.22;;;;;;;;;;5065451;28;20379;-82
2023/05/27 03:14:00;;;;;;;22.05;3.72;;;;;;;;;;5060807;28;20040;-81
2023/05/27 03:16:26;;;;;;;16.95;3.75;;;;;;;;;;5063181;28;20805;-82
2023/05/27 03:18:52;;;;;;;17.20;5.07;;;;;;;;;;5066827;28;20028;-83
2023/05/27 03:21:19;;;;;;;22.05;4.40;;;;;;;;;;5069815;28;20176;-82
2023/05/27 03:23:45;;;;;;;14.50;4.05;;;;;;;;;;5065109;28;20806;-82
2023/05/27 03:26:11;;;;;;;21.70;3.83;;;;;;;;;;5066274;28;20058;-82
2023/05/27 03:28:37;;;;;;;17.05;3.90;;;;;;;;;;5061260;28;20523;-82
2023/05/27 03:31:04;;;;;;;21.52;4.38;;;;;;;;;;5062343;28;21212;-82
2023/05/27 03:33:30;;;;;;;20.65;4.63;;;;;;;;;;5060767;28;20538;-83
2023/05/27 03:35:56;;;;;;;20.35;4.18;;;;;;;;;;5062913;28;20394;-82
2023/05/27 03:38:22;;;;;;;16.00;4.05;;;;;;;;;;5064769;28;20088;-82
2023/05/27 03:40:48;;;;;;;23.42;3.92;;;;;;;;;;5065193;28;20047;-82
2023/05/27 03:43:14;;;;;;;22.10;5.15;;;;;;;;;;5063041;28;20130;-82
2023/05/27 03:45:40;;;;;;;19.83;3.85;;;;;;;;;;5061379;28;20084;-83
2023/05/27 03:48:06;;;;;;;19.52;4.05;;;;;;;;;;5059733;28;20044;-81
2023/05/27 03:50:35;;;;;;;19.65;3.67;;;;;;;;;;5064201;28;20074;-82
2023/05/27 03:53:01;;;;;;;24.00;4.60;;;;;;;;;;5066769;28;20111;-82
2023/05/27 03:55:27;;;;;;;20.88;4.05;;;;;;;;;;5060331;28;20072;-82
2023/05/27 03:57:53;;;;;;;18.63;3.70;;;;;;;;;;5043779;28;21003;-82
2023/05/27 04:00:19;;;;;;;22.15;5.32;;;;;;;;;;5061810;28;20052;-82
2023/05/27 04:02:45;;;;;;;26.48;4.57;;;;;;;;;;5059576;28;20058;-81
2023/05/27 04:05:11;;;;;;;29.58;4.53;;;;;;;;;;5064409;28;20146;-81
2023/05/27 04:07:37;;;;;;;17.17;4.03;;;;;;;;;;5065839;28;21232;-82
2023/05/27 04:10:04;;;;;;;19.83;5.38;;;;;;;;;;5044512;28;20135;-82
2023/05/27 04:12:30;;;;;;;26.20;4.22;;;;;;;;;;5058781;28;20491;-82
2023/05/27 04:14:56;;;;;;;22.63;4.40;;;;;;;;;;5062422;28;20040;-82
2023/05/27 04:17:22;;;;;;;24.73;4.35;;;;;;;;;;5067148;28;20070;-81
2023/05/27 04:19:48;;;;;;;20.85;4.85;;;;;;;;;;5063696;28;20040;-82
2023/05/27 04:22:15;;;;;;;18.67;5.45;;;;;;;;;;5081806;28;20511;-82
2023/05/27 04:24:43;;;;;;;21.40;4.35;;;;;;;;;;5067675;28;20078;-82
2023/05/27 04:27:09;;;;;;;26.15;4.60;;;;;;;;;;5069574;28;20115;-82
2023/05/27 04:29:36;;;;;;;21.73;4.50;;;;;;;;;;5069247;28;20044;-82
2023/05/27 04:32:03;;;;;;;22.92;4.75;;;;;;;;;;5051244;28;20383;-82
2023/05/27 04:34:29;;;;;;;19.50;4.35;;;;;;;;;;5068243;28;20118;-82
2023/05/27 04:36:55;;;;;;;20.33;4.18;;;;;;;;;;5066763;28;20419;-82
2023/05/27 04:39:21;;;;;;;21.63;3.92;;;;;;;;;;5063130;28;20502;-81
2023/05/27 04:41:48;;;;;;;21.67;4.72;;;;;;;;;;5069741;28;20098;-82
2023/05/27 04:44:14;;;;;;;24.20;4.18;;;;;;;;;;5084519;27;20044;-82
2023/05/27 04:46:40;;;;;;;18.05;4.05;;;;;;;;;;5069506;28;20048;-82
2023/05/27 04:49:06;;;;;;;23.77;4.72;;;;;;;;;;5064719;28;20052;-81
2023/05/27 04:51:35;;;;;;;20.20;4.30;;;;;;;;;;5065924;28;20054;-81
2023/05/27 04:54:01;;;;;;;26.10;4.88;;;;;;;;;;5066295;28;20074;-81
2023/05/27 04:56:28;;;;;;;21.42;5.68;;;;;;;;;;5061551;28;20416;-81
2023/05/27 04:58:55;;;;;;;19.08;4.00;;;;;;;;;;5066132;28;20051;-82
2023/05/27 05:01:24;;;;;;;21.50;4.53;;;;;;;;;;5062196;28;20129;-82
2023/05/27 05:04:10;;;;;;;22.92;4.68;;;;;;;;;;5076903;28;20058;-80
2023/05/27 05:06:37;;;;;;;18.10;4.32;;;;;;;;;;5067355;28;20075;-82
2023/05/27 05:09:04;;;;;;;16.83;5.30;;;;;;;;;;5064920;28;20106;-81
2023/05/27 05:11:30;;;;;;;18.38;4.70;;;;;;;;;;5068230;28;20071;-81
2023/05/27 05:13:57;;;;;;;20.02;4.70;;;;;;;;;;5067324;28;20051;-81
2023/05/27 05:16:23;;;;;;;21.02;4.68;;;;;;;;;;5067354;28;20081;-80
2023/05/27 05:18:50;;;;;;;22.25;4.75;;;;;;;;;;5064499;28;20048;-81
2023/05/27 05:21:16;;;;;;;24.30;4.68;;;;;;;;;;5063792;28;20059;-81
2023/05/27 05:23:42;;;;;;;21.80;4.88;;;;;;;;;;5073059;28;20040;-81
2023/05/27 05:26:08;;;;;;;21.48;5.68;;;;;;;;;;5069743;28;21010;-82
2023/05/27 05:28:35;;;;;;;23.45;5.28;;;;;;;;;;5067507;28;20120;-81
2023/05/27 05:31:01;;;;;;;23.05;5.25;;;;;;;;;;5070327;28;20044;-82
2023/05/27 05:33:27;;;;;;;20.85;5.47;;;;;;;;;;5069583;28;20182;-82
2023/05/27 05:35:53;;;;;;;27.20;5.20;;;;;;;;;;5065394;28;20048;-81
2023/05/27 05:38:19;;;;;;;18.50;5.20;;;;;;;;;;5069707;28;20044;-82
2023/05/27 05:40:49;;;;;;;22.73;5.30;;;;;;;;;;5066836;28;20051;-81
2023/05/27 05:43:15;;;;;;;22.33;4.97;;;;;;;;;;5067414;28;20044;-81
2023/05/27 05:45:41;;;;;;;24.38;5.05;;;;;;;;;;5083770;28;20040;-81
2023/05/27 05:48:07;;;;;;;19.70;4.72;;;;;;;;;;5068313;28;20040;-81
2023/05/27 05:50:33;;;;;;;26.00;6.00;;;;;;;;;;5071207;28;20082;-81
2023/05/27 05:52:59;;;;;;;25.70;5.32;;;;;;;;;;5069886;28;20140;-81
2023/05/27 05:55:25;;;;;;;24.92;5.18;;;;;;;;;;5071066;28;20048;-82
2023/05/27 05:57:52;;;;;;;19.05;5.43;;;;;;;;;;5073523;28;20040;-82
2023/05/27 06:00:18;;;;;;;22.02;4.82;;;;;;;;;;5053265;28;20071;-81
2023/05/27 06:02:44;;;;;;;20.30;4.40;;;;;;;;;;5064470;28;20040;-82
2023/05/27 06:05:10;;;;;;;22.48;4.70;;;;;;;;;;5062597;28;20484;-82
2023/05/27 06:07:36;;;;;;;23.67;5.63;;;;;;;;;;5065631;28;20711;-82
2023/05/27 06:10:02;;;;;;;17.08;4.78;;;;;;;;;;5070703;28;20036;-82
2023/05/27 06:12:28;;;;;;;22.10;5.03;;;;;;;;;;5069479;28;20067;-81
2023/05/27 06:14:55;;;;;;;23.27;5.13;;;;;;;;;;5051131;28;20051;-82
2023/05/27 06:17:21;;;;;;;16.30;4.72;;;;;;;;;;5063066;28;20081;-80
2023/05/27 06:19:47;;;;;;;22.80;4.97;;;;;;;;;;5072468;28;21893;-82
2023/05/27 06:22:13;;;;;;;20.98;4.97;;;;;;;;;;5068816;28;20048;-81
2023/05/27 06:24:39;;;;;;;24.20;5.20;;;;;;;;;;5061613;28;20072;-81
2023/05/27 06:27:05;;;;;;;20.90;4.22;;;;;;;;;;5058330;28;20048;-82
2023/05/27 06:29:31;;;;;;;25.92;4.55;;;;;;;;;;5064815;28;20044;-82
2023/05/27 06:31:57;;;;;;;21.35;4.78;;;;;;;;;;5050430;28;20044;-81
2023/05/27 06:34:23;;;;;;;19.90;4.75;;;;;;;;;;5066460;28;20040;-81
2023/05/27 06:36:49;;;;;;;25.70;5.43;;;;;;;;;;5085606;28;20043;-82
2023/05/27 06:39:16;;;;;;;18.88;4.97;;;;;;;;;;5075734;28;20039;-81
2023/05/27 06:41:42;;;;;;;19.52;4.60;;;;;;;;;;5088820;28;20117;-81
2023/05/27 06:44:08;;;;;;;21.23;4.90;;;;;;;;;;5081854;28;20055;-81
2023/05/27 06:46:34;;;;;;;24.40;5.00;;;;;;;;;;5063176;28;20062;-82
2023/05/27 06:49:00;;;;;;;23.42;5.10;;;;;;;;;;5063692;28;20043;-80
2023/05/27 06:51:27;;;;;;;22.50;5.50;;;;;;;;;;5043930;28;20040;-81
2023/05/27 06:53:53;;;;;;;22.88;5.28;;;;;;;;;;5058578;28;20530;-80
2023/05/27 06:56:19;;;;;;;23.45;4.93;;;;;;;;;;5059492;28;20540;-80
2023/05/27 06:58:46;;;;;;;24.25;5.82;;;;;;;;;;5056207;28;20051;-81
2023/05/27 07:01:12;;;;;;;22.05;5.90;;;;;;;;;;5060788;28;20076;-82
2023/05/27 07:03:38;;;;;;;28.10;5.43;;;;;;;;;;5063193;28;20152;-82
2023/05/27 07:06:05;;;;;;;28.83;6.68;;;;;;;;;;5057936;28;20055;-81
2023/05/27 07:08:31;;;;;;;23.58;5.03;;;;;;;;;;5064310;28;20046;-81
2023/05/27 07:10:57;;;;;;;26.42;5.38;;;;;;;;;;5061169;28;20072;-82
2023/05/27 07:13:23;;;;;;;22.90;5.35;;;;;;;;;;5063365;28;20040;-82
2023/05/27 07:15:50;;;;;;;19.58;4.95;;;;;;;;;;5067018;28;21026;-82
2023/05/27 07:18:16;;;;;;;23.77;5.38;;;;;;;;;;5066587;28;20054;-81
2023/05/27 07:20:43;;;;;;;21.92;5.07;;;;;;;;;;5060810;28;20052;-81
2023/05/27 07:23:09;;;;;;;22.38;5.13;;;;;;;;;;5061058;28;20063;-81
2023/05/27 07:25:35;;;;;;;20.92;5.35;;;;;;;;;;5059932;28;20055;-81
2023/05/27 07:28:01;;;;;;;26.88;5.43;;;;;;;;;;5053116;28;20079;-82
2023/05/27 07:30:28;;;;;;;24.58;5.70;;;;;;;;;;5035007;28;20054;-81
2023/05/27 07:32:54;;;;;;;20.77;5.82;;;;;;;;;;5058378;28;20050;-81
2023/05/27 07:35:20;;;;;;;22.80;7.43;;;;;;;;;;5056222;28;20527;-80
2023/05/27 07:37:46;;;;;;;34.83;6.75;;;;;;;;;;5061648;28;20160;-79
2023/05/27 07:40:12;;;;;;;25.88;5.93;;;;;;;;;;5058576;28;20055;-80
2023/05/27 07:42:38;;;;;;;23.05;5.78;;;;;;;;;;5055570;28;20044;-82
2023/05/27 07:45:05;;;;;;;23.98;6.38;;;;;;;;;;5039671;28;20044;-81
2023/05/27 07:47:31;;;;;;;25.10;5.28;;;;;;;;;;5058804;28;20068;-79
2023/05/27 07:49:57;;;;;;;20.33;5.13;;;;;;;;;;5055346;28;20332;-79
2023/05/27 07:52:23;;;;;;;28.92;6.07;;;;;;;;;;5056704;28;20070;-80
2023/05/27 07:54:49;;;;;;;25.88;6.32;;;;;;;;;;5058782;28;20055;-80
2023/05/27 07:57:16;;;;;;;25.80;5.63;;;;;;;;;;5066002;28;20043;-80
2023/05/27 07:59:43;;;;;;;27.15;5.45;;;;;;;;;;5066969;28;20052;-80
2023/05/27 08:02:09;;;;;;;34.08;6.43;;;;;;;;;;5064032;28;20048;-80
2023/05/27 08:04:35;;;;;;;25.45;6.20;;;;;;;;;;5066489;28;20036;-81
2023/05/27 08:07:01;;;;;;;23.35;6.25;;;;;;;;;;5068639;28;20044;-81
2023/05/27 08:09:28;;;;;;;20.73;5.82;;;;;;;;;;5070455;28;20102;-81
2023/05/27 08:11:54;;;;;;;22.27;4.97;;;;;;;;;;5052181;28;20043;-82
2023/05/27 08:14:20;;;;;;;21.58;5.53;;;;;;;;;;5071168;28;20104;-82
2023/05/27 08:16:46;;;;;;;21.13;6.25;;;;;;;;;;5069225;28;20126;-82
2023/05/27 08:19:13;;;;;;;22.80;5.28;;;;;;;;;;5064884;28;20044;-81
2023/05/27 08:21:40;;;;;;;22.20;5.68;;;;;;;;;;5064977;28;20044;-82
2023/05/27 08:24:06;;;;;;;23.13;5.65;;;;;;;;;;5072408;28;20048;-81
2023/05/27 08:26:32;;;;;;;27.48;8.20;;;;;;;;;;5065674;28;20048;-81
2023/05/27 08:28:58;;;;;;;27.63;6.18;;;;;;;;;;5065877;28;20594;-82
2023/05/27 08:31:24;;;;;;;23.80;5.60;;;;;;;;;;5064551;28;20174;-81
2023/05/27 08:33:51;;;;;;;21.35;5.63;;;;;;;;;;5066341;28;20036;-81
2023/05/27 08:36:19;;;;;;;23.55;5.75;;;;;;;;;;5061660;28;20082;-81
2023/05/27 08:38:45;;;;;;;25.35;6.40;;;;;;;;;;5059075;28;20059;-81
2023/05/27 08:41:11;;;;;;;20.27;5.95;;;;;;;;;;5062251;28;21357;-80
2023/05/27 08:43:38;;;;;;;24.65;6.32;;;;;;;;;;5072727;28;20036;-80
2023/05/27 08:46:04;;;;;;;24.95;5.80;;;;;;;;;;5064672;28;22021;-81
2023/05/27 08:48:30;;;;;;;19.33;5.47;;;;;;;;;;5085795;28;20039;-80
2023/05/27 08:50:57;;;;;;;18.73;6.10;;;;;;;;;;5064876;28;20048;-80
2023/05/27 08:53:23;;;;;;;22.55;5.95;;;;;;;;;;5065619;28;20059;-81
2023/05/27 08:55:51;;;;;;;20.58;5.55;;;;;;;;;;5063670;28;21207;-81
2023/05/27 08:58:17;;;;;;;32.40;6.75;;;;;;;;;;5064299;28;20063;-80
2023/05/27 09:00:44;;;;;;;24.88;6.55;;;;;;;;;;5079965;28;20437;-80
2023/05/27 09:03:10;;;;;;;20.15;5.38;;;;;;;;;;5069871;28;20052;-81
2023/05/27 09:05:36;;;;;;;22.98;6.32;;;;;;;;;;5053000;28;20083;-88
2023/05/27 09:08:03;;;;;;;23.38;5.97;;;;;;;;;;5076455;28;20101;-82
2023/05/27 09:10:38;;;;;;;23.60;6.25;;;;;;;;;;5073631;28;20035;-83
2023/05/27 09:13:05;;;;;;;20.17;5.57;;;;;;;;;;5071180;28;20051;-81
2023/05/27 09:15:31;;;;;;;22.58;5.82;;;;;;;;;;5054561;28;20048;-79
2023/05/27 09:17:58;;;;;;;18.13;5.50;;;;;;;;;;5075219;28;20074;-85
2023/05/27 09:20:30;;;;;;;22.77;6.45;;;;;;;;;;5055466;28;20040;-80
2023/05/27 09:22:57;;;;;;;19.83;4.93;;;;;;;;;;5061655;28;20047;-80
2023/05/27 09:25:27;;;;;;;23.63;5.88;;;;;;;;;;5055427;28;20512;-81
2023/05/27 09:27:55;;;;;;;23.98;5.93;;;;;;;;;;5061163;28;22374;-77
2023/05/27 09:30:21;;;;;;;20.40;5.20;;;;;;;;;;5066786;28;20036;-79
2023/05/27 09:32:48;;;;;;;28.42;6.72;;;;;;;;;;5065229;28;20051;-78
2023/05/27 09:35:15;;;;;;;24.83;6.45;;;;;;;;;;5066207;28;20185;-83
2023/05/27 09:37:43;;;;;;;19.83;5.70;;;;;;;;;;5071147;28;20039;-81
2023/05/27 09:40:10;;;;;;;22.20;5.72;;;;;;;;;;5061057;28;20051;-83
2023/05/27 09:42:40;;;;;;;24.63;5.75;;;;;;;;;;5059891;28;20134;-80
2023/05/27 09:45:09;;;;;;;21.80;6.18;;;;;;;;;;5062757;28;20043;-80
2023/05/27 09:47:38;;;;;;;20.75;5.78;;;;;;;;;;5061576;28;20058;-81
2023/05/27 09:50:04;;;;;;;24.63;6.35;;;;;;;;;;5060651;28;20044;-80
2023/05/27 09:52:31;;;;;;;16.60;5.70;;;;;;;;;;5061986;28;20036;-80
2023/05/27 09:54:58;;;;;;;20.30;5.57;;;;;;;;;;5057021;28;20056;-77
2023/05/27 09:57:24;;;;;;;23.30;6.07;;;;;;;;;;5070844;28;20052;-83
2023/05/27 09:59:51;;;;;;;20.60;5.45;;;;;;;;;;5054505;28;20097;-81
2023/05/27 10:02:18;;;;;;;24.25;5.88;;;;;;;;;;5057818;28;20125;-79
2023/05/27 10:04:45;;;;;;;14.57;4.90;;;;;;;;;;5063371;28;20604;-75
2023/05/27 10:07:12;;;;;;;17.92;5.18;;;;;;;;;;5061893;28;20056;-80
2023/05/27 10:09:40;;;;;;;19.30;5.97;;;;;;;;;;5057685;28;20040;-83
2023/05/27 10:12:07;;;;;;;21.45;6.05;;;;;;;;;;5067426;28;20913;-82
2023/05/27 10:14:34;;;;;;;21.58;5.32;;;;;;;;;;5060151;28;20951;-80
2023/05/27 10:17:00;;;;;;;20.42;6.05;;;;;;;;;;5065441;28;20044;-82
2023/05/27 10:19:27;;;;;;;22.90;6.65;;;;;;;;;;5078770;28;20040;-81
2023/05/27 10:21:53;;;;;;;22.88;7.05;;;;;;;;;;5078564;28;21388;-80
2023/05/27 10:24:20;;;;;;;21.92;6.28;;;;;;;;;;5080728;28;20052;-81
2023/05/27 10:26:48;;;;;;;27.83;6.88;;;;;;;;;;5076187;28;20120;-80
2023/05/27 10:29:15;;;;;;;16.67;6.78;;;;;;;;;;5088936;28;20047;-80
2023/05/27 10:31:45;;;;;;;19.00;5.55;;;;;;;;;;5098527;28;20044;-79
2023/05/27 10:34:11;;;;;;;19.80;6.32;;;;;;;;;;5092295;28;20064;-80
2023/05/27 10:36:37;;;;;;;22.50;6.82;;;;;;;;;;5093383;28;20052;-80
2023/05/27 10:39:05;;;;;;;18.73;6.65;;;;;;;;;;5088609;28;20055;-81
2023/05/27 10:41:53;;;;;;;22.33;6.60;;;;;;;;;;5083165;28;20046;-82
2023/05/27 10:44:30;;;;;;;24.27;6.13;;;;;;;;;;5081712;28;20107;-83
2023/05/27 10:47:14;;;;;;;23.58;5.75;;;;;;;;;;5081030;28;20039;-82
2023/05/27 10:49:41;;;;;;;20.33;6.50;;;;;;;;;;5071869;28;20043;-81
2023/05/27 10:52:12;;;;;;;21.80;6.45;;;;;;;;;;5062581;28;20059;-82
2023/05/27 10:54:50;;;;;;;18.95;5.60;;;;;;;;;;5065173;28;20052;-82
2023/05/27 10:57:17;;;;;;;21.35;5.85;;;;;;;;;;5063675;28;20043;-82
2023/05/27 10:59:53;;;;;;;22.02;6.45;;;;;;;;;;5070450;28;20051;-83
2023/05/27 11:02:20;;;;;;;18.50;6.03;;;;;;;;;;5081008;28;20039;-85
2023/05/27 11:04:46;;;;;;;23.55;6.45;;;;;;;;;;5082956;28;20055;-85
2023/05/27 11:07:13;;;;;;;15.45;5.80;;;;;;;;;;5081231;28;20388;-85
2023/05/27 11:09:43;;;;;;;23.35;5.82;;;;;;;;;;5070442;28;20036;-81
2023/05/27 11:12:16;;;;;;;21.67;6.18;;;;;;;;;;5063429;28;20048;-85
2023/05/27 11:14:42;;;;;;;20.85;5.68;;;;;;;;;;5084663;28;20055;-85
2023/05/27 11:17:12;;;;;;;23.33;5.95;;;;;;;;;;5083355;28;20028;-83
2023/05/27 11:19:42;;;;;;;27.85;6.63;;;;;;;;;;5077121;28;20509;-84
2023/05/27 11:22:09;;;;;;;16.73;5.72;;;;;;;;;;5043637;28;20089;-85
2023/05/27 11:24:38;;;;;;;19.63;6.18;;;;;;;;;;5061392;28;20078;-87
2023/05/27 11:27:11;;;;;;;16.75;4.90;;;;;;;;;;5048569;28;20047;-86
2023/05/27 11:29:41;;;;;;;17.98;5.07;;;;;;;;;;5059229;28;20047;-87
2023/05/27 11:32:07;;;;;;;16.58;5.38;;;;;;;;;;5059215;28;20036;-84
2023/05/27 11:34:37;;;;;;;17.73;5.00;;;;;;;;;;5040714;28;20132;-86
2023/05/27 11:37:04;;;;;;;15.88;5.03;;;;;;;;;;5038072;28;20787;-86
2023/05/27 11:39:30;;;;;;;19.27;5.07;;;;;;;;;;5062739;28;20050;-85
2023/05/27 11:41:56;;;;;;;21.50;6.25;;;;;;;;;;5061321;28;20684;-86
2023/05/27 11:44:24;;;;;;;19.63;5.22;;;;;;;;;;5058527;28;20040;-84
2023/05/27 11:46:51;;;;;;;17.65;5.13;;;;;;;;;;5062423;28;20484;-84
2023/05/27 11:49:19;;;;;;;34.45;5.97;;;;;;;;;;5067930;28;20076;-86
2023/05/27 11:51:46;;;;;;;21.20;5.07;;;;;;;;;;5064411;28;20096;-84
2023/05/27 11:54:20;;;;;;;20.80;5.40;;;;;;;;;;5062618;28;20048;-86
2023/05/27 11:56:46;;;;;;;;;;;;;;;;;;5063655;28;20059;-80
2023/05/27 11:59:13;;;;;;;19.05;4.85;;;;;;;;;;5059740;28;19924;-78
2023/05/27 12:01:41;;;;;;;23.70;5.90;;;;;;;;;;5055465;28;20480;-82
2023/05/27 12:04:07;;;;;;;18.80;4.78;;;;;;;;;;5053009;28;20506;-85
2023/05/27 12:06:34;;;;;;;19.33;5.78;;;;;;;;;;5064331;28;20095;-80
2023/05/27 12:09:00;;;;;;;25.27;5.93;;;;;;;;;;5055517;28;20545;-80
2023/05/27 12:11:26;;;;;;;19.60;5.28;;;;;;;;;;5061106;28;20043;-79
2023/05/27 12:13:53;;;;;;;24.17;5.88;;;;;;;;;;5058667;28;20125;-80
2023/05/27 12:16:20;;;;;;;21.45;5.25;;;;;;;;;;5056626;28;20073;-80
2023/05/27 12:18:46;;;;;;;27.52;5.78;;;;;;;;;;5059907;28;20044;-77
2023/05/27 12:21:13;;;;;;;18.63;6.00;;;;;;;;;;5061237;28;20054;-81
2023/05/27 12:23:39;;;;;;;27.25;5.85;;;;;;;;;;5066150;28;20036;-82
2023/05/27 12:26:05;;;;;;;24.52;5.32;;;;;;;;;;5062196;28;20039;-81
2023/05/27 12:28:31;;;;;;;18.30;5.05;;;;;;;;;;5055296;28;20051;-80
2023/05/27 12:30:57;;;;;;;21.55;5.00;;;;;;;;;;5059384;28;20054;-80
2023/05/27 12:33:24;;;;;;;23.40;5.60;;;;;;;;;;5057558;28;20047;-81
2023/05/27 12:35:51;;;;;;;22.88;5.00;;;;;;;;;;5067137;28;20121;-84
2023/05/27 12:38:17;;;;;;;18.35;4.60;;;;;;;;;;5063201;28;20044;-80
2023/05/27 12:40:43;;;;;;;18.10;4.30;;;;;;;;;;5045531;28;20081;-79
2023/05/27 12:43:09;;;;;;;20.40;5.35;;;;;;;;;;5058933;28;20827;-81
2023/05/27 12:45:35;;;;;;;21.30;5.60;;;;;;;;;;5044068;28;20060;-79
2023/05/27 12:48:02;;;;;;;21.42;4.82;;;;;;;;;;5044696;28;20052;-80
2023/05/27 12:50:28;;;;;;;22.77;4.97;;;;;;;;;;5057343;28;20036;-79
2023/05/27 12:52:54;;;;;;;18.17;5.18;;;;;;;;;;5042636;28;20048;-79
2023/05/27 12:55:21;;;;;;;20.33;5.35;;;;;;;;;;5072920;27;20108;-81
2023/05/27 12:57:48;;;;;;;23.90;5.85;;;;;;;;;;5059595;28;20052;-79
2023/05/27 13:00:14;;;;;;;26.25;5.43;;;;;;;;;;5046200;28;22074;-80
2023/05/27 13:02:40;;;;;;;17.83;4.30;;;;;;;;;;5064297;28;20044;-80
2023/05/27 13:05:07;;;;;;;14.52;4.20;;;;;;;;;;5039752;28;20238;-81
2023/05/27 13:07:33;;;;;;;18.50;4.97;;;;;;;;;;5044450;28;20051;-81
2023/05/27 13:10:03;;;;;;;26.40;5.38;;;;;;;;;;5060759;28;20617;-80
2023/05/27 13:12:30;;;;;;;27.50;6.05;;;;;;;;;;5060522;28;20122;-79
2023/05/27 13:14:57;;;;;;;19.25;5.60;;;;;;;;;;5061652;28;21309;-81
2023/05/27 13:17:23;;;;;;;27.70;5.57;;;;;;;;;;5040239;28;20055;-80
2023/05/27 13:19:49;;;;;;;24.98;5.18;;;;;;;;;;5061257;28;20040;-81
2023/05/27 13:22:15;;;;;;;20.83;5.40;;;;;;;;;;5060459;28;20073;-80
2023/05/27 13:24:42;;;;;;;16.23;4.70;;;;;;;;;;5072558;28;20055;-80
2023/05/27 13:27:08;;;;;;;20.98;5.38;;;;;;;;;;5061348;28;20063;-80
2023/05/27 13:29:37;;;;;;;22.92;5.47;;;;;;;;;;5040521;28;20071;-80
2023/05/27 13:32:04;;;;;;;16.67;4.40;;;;;;;;;;5056592;28;20051;-80
2023/05/27 13:34:30;;;;;;;18.13;4.28;;;;;;;;;;5043834;28;20151;-80
2023/05/27 13:36:56;;;;;;;22.48;5.45;;;;;;;;;;5059958;28;20044;-79
2023/05/27 13:39:22;;;;;;;22.50;4.80;;;;;;;;;;5059054;28;20139;-79
2023/05/27 13:41:48;;;;;;;19.40;5.30;;;;;;;;;;5060396;28;20051;-79
2023/05/27 13:44:15;;;;;;;22.75;5.18;;;;;;;;;;5055517;28;20078;-79
2023/05/27 13:46:41;;;;;;;22.85;5.28;;;;;;;;;;5052205;28;20048;-79
2023/05/27 13:49:07;;;;;;;19.73;5.00;;;;;;;;;;5052830;28;22175;-80
2023/05/27 13:51:33;;;;;;;18.00;4.95;;;;;;;;;;5055336;28;20051;-80
2023/05/27 13:54:00;;;;;;;21.40;5.40;;;;;;;;;;5057277;28;22034;-80
2023/05/27 13:56:26;;;;;;;19.25;4.80;;;;;;;;;;5053834;28;20393;-79
2023/05/27 13:58:52;;;;;;;23.27;5.95;;;;;;;;;;5053030;28;20040;-80
2023/05/27 14:01:19;;;;;;;16.90;4.60;;;;;;;;;;5055649;28;20131;-80
2023/05/27 14:03:45;;;;;;;18.05;4.97;;;;;;;;;;5056237;28;20580;-79
2023/05/27 14:06:11;;;;;;;21.58;5.55;;;;;;;;;;5057868;28;22175;-80
2023/05/27 14:08:38;;;;;;;19.75;5.95;;;;;;;;;;5057125;28;20135;-80
2023/05/27 14:11:04;;;;;;;15.40;4.90;;;;;;;;;;5057107;28;20051;-81
2023/05/27 14:13:30;;;;;;;24.15;5.15;;;;;;;;;;5054852;28;20059;-80
2023/05/27 14:15:56;;;;;;;24.83;5.03;;;;;;;;;;5055303;28;20803;-81
2023/05/27 14:18:22;;;;;;;17.13;4.60;;;;;;;;;;5074605;28;20097;-82
2023/05/27 14:20:49;;;;;;;17.42;4.68;;;;;;;;;;5072836;28;20043;-80
2023/05/27 14:23:16;;;;;;;18.23;5.05;;;;;;;;;;5053769;28;20049;-80
2023/05/27 14:25:42;;;;;;;17.80;4.50;;;;;;;;;;5054226;28;20044;-81
2023/05/27 14:28:08;;;;;;;25.08;5.57;;;;;;;;;;5046276;28;20491;-81